Terminal Aerodrome Forecast
Issued by NWS

Home | Current Version | Previous Version | Text Only | Print | Product List | Glossary On
Versions: 1 2 3 4 5 6 7 8 9 10 11 12 13 14 15 16 17 18 19 20
000
FTUS42 KGSP 240500 CCA
TAFAND
TAF COR
KAND 240552Z 2406/2506 26005KT P6SM SCT070
     FM241700 26008KT P6SM BKN070 PROB30 2419/2423 4SM TSRA BKN040CB
     FM250000 24007KT P6SM BKN040
     FM250400 23005KT P6SM SCT120=

USA.gov is the U.S. government's official web portal to all federal, state and local government web resources and services.